Time;durP1;ratioP1;P1;durP2;ratioP2;P2;SDS_P1;SDS_P2;PMS_P1;PMS_P2;Temp;Humidity;BMP_temperature;BMP_pressure;BME280_temperature;BME280_humidity;BME280_pressure;Samples;Min_cycle;Max_cycle;Signal;HPM_P1;HPM_P2
2022/07/24 00:01:38;;;;;;;10.90;10.00;;;13.20;86.90;;;;;;4993081;28;20165;-79
2022/07/24 00:04:06;;;;;;;9.83;9.03;;;13.30;87.20;;;;;;4992377;28;20257;-78
2022/07/24 00:06:34;;;;;;;10.00;9.20;;;13.40;86.80;;;;;;4995118;28;20242;-79
2022/07/24 00:09:01;;;;;;;8.80;8.10;;;13.50;86.50;;;;;;4994858;28;20189;-80
2022/07/24 00:11:29;;;;;;;9.00;7.90;;;13.70;86.30;;;;;;4995809;28;20256;-80
2022/07/24 00:13:56;;;;;;;7.17;6.57;;;13.80;86.60;;;;;;4995664;28;20187;-77
2022/07/24 00:16:23;;;;;;;7.23;6.70;;;13.90;86.00;;;;;;4996001;28;20170;-76
2022/07/24 00:18:51;;;;;;;6.93;6.17;;;13.90;85.90;;;;;;4986284;28;20186;-75
2022/07/24 00:21:18;;;;;;;5.03;4.53;;;14.00;85.40;;;;;;4982414;28;20582;-75
2022/07/24 00:23:46;;;;;;;4.67;4.27;;;14.10;84.80;;;;;;4980226;28;20201;-75
2022/07/24 00:26:13;;;;;;;4.80;4.40;;;14.20;84.50;;;;;;4992149;28;20630;-77
2022/07/24 00:28:41;;;;;;;7.33;4.77;;;14.20;84.00;;;;;;4995718;28;20197;-75
2022/07/24 00:31:08;;;;;;;4.37;3.90;;;14.30;84.40;;;;;;4994605;28;20293;-76
2022/07/24 00:33:36;;;;;;;7.70;4.50;;;14.50;83.60;;;;;;4996026;28;20197;-76
2022/07/24 00:36:04;;;;;;;4.43;3.53;;;14.50;83.80;;;;;;4995495;28;20543;-76
2022/07/24 00:38:31;;;;;;;6.57;3.30;;;14.70;83.60;;;;;;4995549;28;20360;-76
2022/07/24 00:40:58;;;;;;;4.33;3.37;;;14.70;82.80;;;;;;4995308;28;20185;-76
2022/07/24 00:43:26;;;;;;;5.87;3.80;;;14.80;82.70;;;;;;4995757;28;20190;-75
2022/07/24 00:45:53;;;;;;;2.80;2.50;;;14.90;83.00;;;;;;4995577;28;20185;-79
2022/07/24 00:48:21;;;;;;;4.93;2.43;;;15.00;82.00;;;;;;4995442;28;20669;-76
2022/07/24 00:50:48;;;;;;;4.17;1.90;;;15.10;81.50;;;;;;4995299;28;20181;-73
2022/07/24 00:53:16;;;;;;;3.67;1.70;;;15.30;81.30;;;;;;4995642;28;20193;-74
2022/07/24 00:55:44;;;;;;;3.00;1.93;;;15.30;79.70;;;;;;4995590;28;20182;-75
2022/07/24 00:58:12;;;;;;;4.67;1.73;;;15.40;79.70;;;;;;4990592;28;20276;-72
2022/07/24 01:00:40;;;;;;;3.90;1.70;;;15.50;79.30;;;;;;4994574;28;20244;-74
2022/07/24 01:03:07;;;;;;;2.87;1.37;;;15.70;79.00;;;;;;4990867;28;20692;-76
2022/07/24 01:05:34;;;;;;;3.60;1.50;;;15.70;77.90;;;;;;4992898;28;20213;-76
2022/07/24 01:08:02;;;;;;;2.70;1.20;;;15.70;77.50;;;;;;4992333;28;20190;-73
2022/07/24 01:10:30;;;;;;;4.43;1.50;;;15.80;76.90;;;;;;4993889;28;20654;-75
2022/07/24 01:12:57;;;;;;;1.03;1.03;;;16.00;77.90;;;;;;4994945;28;20213;-74
2022/07/24 01:15:25;;;;;;;3.00;1.50;;;16.10;76.40;;;;;;5004847;28;20369;-73
2022/07/24 01:17:52;;;;;;;4.23;1.87;;;16.30;75.20;;;;;;4993499;28;20228;-73
2022/07/24 01:20:19;;;;;;;3.03;1.37;;;16.40;74.70;;;;;;4994519;28;20689;-74
2022/07/24 01:22:47;;;;;;;3.60;1.47;;;16.50;75.00;;;;;;4995050;28;20178;-73
2022/07/24 01:25:15;;;;;;;2.20;1.37;;;16.60;74.70;;;;;;4995159;28;20659;-74
2022/07/24 01:27:42;;;;;;;6.83;2.10;;;16.80;73.80;;;;;;4990461;28;20182;-74
2022/07/24 01:30:10;;;;;;;3.27;1.00;;;16.90;73.60;;;;;;4981420;28;20222;-73
2022/07/24 01:32:37;;;;;;;4.17;1.20;;;16.90;73.30;;;;;;5015734;28;20618;-72
2022/07/24 01:35:06;;;;;;;5.40;1.50;;;17.10;72.90;;;;;;5021708;28;20715;-74
2022/07/24 01:37:33;;;;;;;2.60;1.53;;;17.30;71.90;;;;;;5031084;28;20274;-73
2022/07/24 01:40:01;;;;;;;4.37;1.30;;;17.50;73.10;;;;;;5018232;28;20195;-74
2022/07/24 01:42:28;;;;;;;2.93;1.20;;;17.60;70.30;;;;;;5009621;28;20264;-73
2022/07/24 01:44:55;;;;;;;1.70;1.00;;;17.70;71.00;;;;;;5020861;28;20194;-76
2022/07/24 01:47:23;;;;;;;3.07;1.20;;;17.80;69.70;;;;;;5016455;28;20172;-75
2022/07/24 01:49:50;;;;;;;2.20;1.00;;;17.90;69.00;;;;;;5009452;28;20271;-75
2022/07/24 01:52:17;;;;;;;3.83;2.30;;;18.20;69.00;;;;;;4998083;28;20657;-76
2022/07/24 01:54:45;;;;;;;3.83;1.43;;;18.40;69.60;;;;;;5012415;28;20205;-77
2022/07/24 01:57:12;;;;;;;4.77;1.43;;;18.00;68.90;;;;;;5017655;28;20636;-79
2022/07/24 01:59:39;;;;;;;4.40;1.53;;;18.10;68.60;;;;;;5022613;28;20215;-76
2022/07/24 02:02:06;;;;;;;4.07;1.40;;;18.20;69.00;;;;;;5013755;28;20188;-76
2022/07/24 02:04:34;;;;;;;3.97;2.10;;;18.30;67.70;;;;;;5022305;28;20184;-77
2022/07/24 02:07:01;;;;;;;2.80;2.10;;;18.70;67.80;;;;;;5019652;28;20189;-76
2022/07/24 02:09:29;;;;;;;6.13;2.40;;;18.70;69.00;;;;;;5013604;28;20199;-77
2022/07/24 02:11:56;;;;;;;2.20;1.67;;;19.00;68.40;;;;;;5020352;28;20185;-77
2022/07/24 02:14:23;;;;;;;4.33;1.60;;;18.90;67.40;;;;;;5014989;28;20184;-76
2022/07/24 02:16:51;;;;;;;2.83;1.23;;;19.00;67.90;;;;;;5013958;28;20223;-87
2022/07/24 02:19:18;;;;;;;2.60;1.00;;;19.00;64.00;;;;;;5010642;28;20549;-74
2022/07/24 02:21:45;;;;;;;1.73;1.07;;;18.80;65.80;;;;;;5012043;28;20184;-73
2022/07/24 02:24:13;;;;;;;5.03;1.50;;;19.00;63.90;;;;;;5014824;28;20213;-74
2022/07/24 02:26:40;;;;;;;3.97;1.40;;;19.10;64.40;;;;;;5010343;28;20559;-75
2022/07/24 02:29:07;;;;;;;5.60;1.70;;;19.20;64.70;;;;;;5012774;28;20673;-78
2022/07/24 02:31:35;;;;;;;2.03;1.27;;;19.10;66.30;;;;;;5012530;28;20835;-77
2022/07/24 02:34:02;;;;;;;4.97;1.50;;;19.10;65.30;;;;;;5011874;28;20196;-73
2022/07/24 02:36:30;;;;;;;2.27;0.90;;;19.20;64.20;;;;;;5011738;28;20185;-74
2022/07/24 02:38:57;;;;;;;5.60;0.80;;;19.40;61.00;;;;;;5002713;28;20185;-76
2022/07/24 02:41:24;;;;;;;2.60;0.90;;;19.60;61.00;;;;;;4999391;28;20178;-72
2022/07/24 02:43:52;;;;;;;2.03;0.90;;;19.70;59.90;;;;;;4992426;28;20182;-75
2022/07/24 02:46:20;;;;;;;1.93;1.00;;;19.90;60.80;;;;;;5003524;28;20180;-77
2022/07/24 02:48:47;;;;;;;2.43;1.03;;;20.30;59.70;;;;;;5003073;28;20531;-76
2022/07/24 02:51:15;;;;;;;3.10;1.00;;;20.60;59.30;;;;;;5012169;28;20773;-76
2022/07/24 02:53:42;;;;;;;3.17;1.07;;;21.00;59.70;;;;;;5009844;28;20181;-76
2022/07/24 02:56:09;;;;;;;1.77;0.87;;;21.00;55.30;;;;;;5004095;28;20239;-76
2022/07/24 02:58:36;;;;;;;2.73;1.17;;;21.10;55.30;;;;;;5011427;28;20271;-77
2022/07/24 03:01:04;;;;;;;4.20;1.03;;;21.40;54.80;;;;;;5002503;28;20652;-76
2022/07/24 03:03:31;;;;;;;3.53;1.00;;;21.90;55.10;;;;;;5011077;28;20181;-75
2022/07/24 03:05:59;;;;;;;2.17;1.10;;;21.90;52.70;;;;;;5006850;28;20189;-77
2022/07/24 03:08:26;;;;;;;2.27;0.90;;;21.00;54.40;;;;;;5006386;28;20255;-76
2022/07/24 03:10:53;;;;;;;1.87;1.03;;;21.00;58.00;;;;;;5011375;28;20583;-80
2022/07/24 03:13:20;;;;;;;2.10;1.00;;;21.20;56.00;;;;;;5012213;28;20184;-79
2022/07/24 03:15:48;;;;;;;5.03;1.30;;;21.10;56.90;;;;;;5014707;28;20197;-78
2022/07/24 03:18:15;;;;;;;3.20;1.13;;;20.80;57.40;;;;;;5008214;28;20231;-80
2022/07/24 03:20:42;;;;;;;1.40;0.60;;;21.00;55.50;;;;;;5014601;28;20600;-76
2022/07/24 03:23:10;;;;;;;2.07;0.90;;;20.80;54.50;;;;;;5008866;28;21469;-77
2022/07/24 03:25:37;;;;;;;3.13;1.00;;;21.40;55.10;;;;;;4994649;28;20260;-81
2022/07/24 03:28:05;;;;;;;2.30;0.93;;;21.80;52.50;;;;;;5011386;28;20647;-77
2022/07/24 03:30:32;;;;;;;3.70;0.90;;;21.80;52.70;;;;;;5006198;28;20197;-78
2022/07/24 03:32:59;;;;;;;2.27;1.03;;;21.80;52.80;;;;;;5011444;28;20204;-78
2022/07/24 03:35:27;;;;;;;2.73;1.20;;;21.90;54.20;;;;;;5011798;28;20185;-77
2022/07/24 03:37:54;;;;;;;2.60;1.00;;;21.80;54.90;;;;;;5011579;28;20561;-79
2022/07/24 03:40:21;;;;;;;1.87;1.03;;;21.80;55.00;;;;;;5012008;28;20185;-78
2022/07/24 03:42:49;;;;;;;4.53;1.40;;;20.80;56.40;;;;;;5007495;28;20284;-77
2022/07/24 03:45:16;;;;;;;2.10;1.20;;;20.70;57.50;;;;;;5008431;28;20225;-80
2022/07/24 03:47:44;;;;;;;2.40;1.00;;;20.60;57.30;;;;;;5008585;28;20276;-78
2022/07/24 03:50:11;;;;;;;2.43;1.03;;;21.10;55.40;;;;;;5008639;28;20217;-78
2022/07/24 03:52:38;;;;;;;2.40;1.50;;;21.60;55.80;;;;;;5010460;28;20647;-81
2022/07/24 03:55:07;;;;;;;3.57;2.23;;;21.80;52.70;;;;;;5008910;28;20351;-77
2022/07/24 03:57:34;;;;;;;2.10;1.00;;;21.30;53.80;;;;;;5015127;28;20221;-79
2022/07/24 04:00:02;;;;;;;2.97;1.07;;;21.80;53.50;;;;;;5014753;28;20177;-78
2022/07/24 04:02:29;;;;;;;3.23;1.20;;;22.00;53.60;;;;;;5015013;28;20211;-82
2022/07/24 04:04:56;;;;;;;3.53;1.20;;;22.30;52.40;;;;;;5014909;28;20189;-80
2022/07/24 04:07:24;;;;;;;2.37;0.93;;;22.80;51.40;;;;;;5015158;28;20636;-80
2022/07/24 04:09:51;;;;;;;1.73;1.07;;;22.40;52.20;;;;;;5008635;28;20180;-80
2022/07/24 04:12:18;;;;;;;4.17;1.00;;;22.00;52.90;;;;;;5015010;28;20197;-79
2022/07/24 04:14:46;;;;;;;1.43;0.80;;;21.90;53.60;;;;;;5015126;28;20289;-78
2022/07/24 04:17:13;;;;;;;4.33;0.80;;;21.80;52.80;;;;;;5014770;28;20663;-80
2022/07/24 04:19:40;;;;;;;1.43;0.83;;;22.80;51.90;;;;;;5015044;28;20247;-80
2022/07/24 04:22:08;;;;;;;1.23;0.70;;;23.30;50.40;;;;;;5014170;28;20181;-79
2022/07/24 04:24:35;;;;;;;2.40;1.17;;;23.20;49.70;;;;;;5011588;28;20341;-84
2022/07/24 04:27:03;;;;;;;1.77;1.20;;;23.70;48.60;;;;;;5006657;28;20232;-81
2022/07/24 04:29:30;;;;;;;3.20;1.00;;;23.30;48.30;;;;;;5011366;28;20576;-79
2022/07/24 04:31:58;;;;;;;3.47;0.90;;;23.20;48.80;;;;;;5010841;28;20243;-78
2022/07/24 04:34:25;;;;;;;3.27;1.40;;;22.50;49.80;;;;;;5001705;28;20186;-79
2022/07/24 04:36:52;;;;;;;2.27;1.07;;;22.10;51.80;;;;;;5005581;28;20201;-79
2022/07/24 04:39:20;;;;;;;3.20;1.20;;;21.90;51.20;;;;;;5002425;28;20249;-82
2022/07/24 04:41:47;;;;;;;2.70;0.90;;;21.10;53.00;;;;;;5010883;28;20192;-80
2022/07/24 04:44:14;;;;;;;4.20;1.07;;;20.60;54.60;;;;;;5014204;28;20216;-80
2022/07/24 04:46:41;;;;;;;2.77;1.00;;;21.10;54.60;;;;;;5010480;28;20231;-80
2022/07/24 04:49:09;;;;;;;4.07;1.13;;;22.00;52.50;;;;;;5011427;28;20544;-81
2022/07/24 04:51:36;;;;;;;3.03;1.13;;;22.60;50.30;;;;;;5007423;28;20204;-81
2022/07/24 04:54:04;;;;;;;4.27;1.37;;;22.10;51.30;;;;;;5013837;28;20195;-78
2022/07/24 04:56:32;;;;;;;3.00;1.07;;;22.20;51.20;;;;;;5000805;28;20651;-77
2022/07/24 04:59:01;;;;;;;5.17;2.20;;;22.90;49.40;;;;;;4999719;28;20662;-78
2022/07/24 05:01:29;;;;;;;2.43;1.50;;;22.90;49.30;;;;;;5003102;28;20178;-79
2022/07/24 05:03:58;;;;;;;3.97;1.60;;;21.40;52.40;;;;;;5007320;28;20679;-75
2022/07/24 05:06:26;;;;;;;3.70;1.23;;;20.40;55.70;;;;;;5005976;28;20233;-76
2022/07/24 05:08:53;;;;;;;3.10;1.30;;;20.10;57.50;;;;;;5011869;28;20652;-76
2022/07/24 05:11:20;;;;;;;3.80;1.60;;;20.10;58.70;;;;;;5013087;28;20189;-76
2022/07/24 05:13:48;;;;;;;4.50;1.43;;;19.80;58.10;;;;;;5003242;28;20227;-77
2022/07/24 05:16:15;;;;;;;3.83;1.13;;;20.20;57.40;;;;;;5011694;28;20178;-76
2022/07/24 05:18:42;;;;;;;5.50;1.63;;;21.20;55.80;;;;;;4997648;28;20675;-77
2022/07/24 05:21:10;;;;;;;2.50;1.20;;;22.30;53.50;;;;;;5012316;28;20197;-75
2022/07/24 05:23:37;;;;;;;3.90;1.33;;;22.60;52.50;;;;;;5013980;28;20196;-76
2022/07/24 05:26:04;;;;;;;6.60;1.30;;;22.20;53.40;;;;;;5012017;28;20200;-76
2022/07/24 05:28:33;;;;;;;5.17;1.27;;;21.60;54.20;;;;;;5004712;28;20323;-76
2022/07/24 05:31:00;;;;;;;5.13;1.80;;;21.50;56.80;;;;;;5005480;28;20221;-78
2022/07/24 05:33:27;;;;;;;4.80;1.30;;;21.50;55.70;;;;;;5004241;28;20255;-78
2022/07/24 05:35:55;;;;;;;7.13;1.33;;;21.50;56.20;;;;;;5012945;28;20185;-78
2022/07/24 05:38:22;;;;;;;6.80;1.80;;;21.30;58.10;;;;;;5013404;28;20623;-79
2022/07/24 05:40:50;;;;;;;3.93;1.20;;;21.10;57.90;;;;;;5003858;28;20185;-76
2022/07/24 05:43:17;;;;;;;5.10;1.20;;;20.90;57.60;;;;;;5013141;28;20649;-77
2022/07/24 05:45:45;;;;;;;4.00;1.40;;;20.50;59.20;;;;;;5003166;28;20223;-77
2022/07/24 05:48:12;;;;;;;5.53;1.37;;;20.40;58.70;;;;;;5012824;28;20174;-78
2022/07/24 05:50:40;;;;;;;9.80;1.30;;;20.80;58.80;;;;;;4989136;28;20193;-78
2022/07/24 05:53:07;;;;;;;6.87;1.37;;;21.00;57.30;;;;;;5012867;28;20181;-79
2022/07/24 05:55:34;;;;;;;5.60;1.10;;;20.10;59.90;;;;;;5012921;28;20628;-77
2022/07/24 05:58:02;;;;;;;7.00;1.47;;;19.70;61.40;;;;;;5012507;28;20216;-75
2022/07/24 06:00:30;;;;;;;7.93;1.83;;;19.80;62.30;;;;;;5008411;28;20316;-78
2022/07/24 06:02:57;;;;;;;4.17;1.40;;;20.70;61.10;;;;;;5010346;28;20696;-79
2022/07/24 06:05:24;;;;;;;5.57;1.10;;;21.00;59.80;;;;;;5012663;28;20189;-79
2022/07/24 06:07:52;;;;;;;6.23;1.50;;;21.30;59.00;;;;;;5006660;28;20273;-77
2022/07/24 06:10:19;;;;;;;4.17;1.40;;;21.60;57.30;;;;;;5006910;28;20240;-77
2022/07/24 06:12:46;;;;;;;3.60;1.40;;;21.80;58.00;;;;;;5012469;28;20181;-76
2022/07/24 06:15:14;;;;;;;8.80;1.37;;;21.90;56.00;;;;;;5012466;28;20533;-77
2022/07/24 06:17:41;;;;;;;4.30;1.40;;;21.20;58.40;;;;;;5012542;28;20221;-78
2022/07/24 06:20:12;;;;;;;7.03;1.20;;;20.60;60.40;;;;;;5012695;28;20216;-77
2022/07/24 06:22:41;;;;;;;4.93;1.33;;;20.00;62.80;;;;;;5005940;28;20256;-79
2022/07/24 06:25:09;;;;;;;4.83;1.67;;;19.50;64.40;;;;;;5012397;28;20224;-76
2022/07/24 06:27:49;;;;;;;4.83;1.93;;;19.20;65.50;;;;;;5003559;28;20184;-76
2022/07/24 06:30:24;;;;;;;5.57;2.53;;;18.90;67.30;;;;;;5005179;28;20260;-78
2022/07/24 06:32:54;;;;;;;6.70;2.37;;;18.70;68.00;;;;;;5012313;28;20215;-76
2022/07/24 06:35:22;;;;;;;6.80;1.53;;;18.30;69.10;;;;;;5015247;28;20181;-78
2022/07/24 06:37:49;;;;;;;4.17;1.33;;;18.00;69.20;;;;;;5011460;28;20216;-77
2022/07/24 06:40:18;;;;;;;7.13;2.87;;;17.90;70.20;;;;;;5009714;28;20541;-78
2022/07/24 06:42:47;;;;;;;7.90;2.60;;;17.80;71.10;;;;;;5012072;28;20185;-74
2022/07/24 06:45:15;;;;;;;5.33;2.23;;;17.70;71.90;;;;;;5008981;28;20188;-76
2022/07/24 06:47:44;;;;;;;5.37;2.00;;;17.70;72.20;;;;;;5012553;28;20265;-77
2022/07/24 06:50:13;;;;;;;4.27;2.00;;;17.50;72.30;;;;;;5001060;28;20187;-78
2022/07/24 06:52:40;;;;;;;5.90;2.50;;;17.30;73.40;;;;;;5003957;28;20188;-78
2022/07/24 06:55:09;;;;;;;7.57;2.90;;;17.20;73.80;;;;;;5011037;28;20183;-79
2022/07/24 06:57:37;;;;;;;5.07;2.17;;;17.00;73.80;;;;;;5002687;28;20216;-79
2022/07/24 07:00:09;;;;;;;3.53;1.77;;;17.00;74.10;;;;;;5010301;28;20531;-78
2022/07/24 07:02:37;;;;;;;4.73;1.93;;;16.90;74.20;;;;;;5005137;28;20229;-80
2022/07/24 07:05:09;;;;;;;5.63;2.50;;;16.90;74.80;;;;;;5011477;28;20641;-78
2022/07/24 07:07:37;;;;;;;4.10;2.07;;;16.80;74.90;;;;;;4996890;28;20228;-81
2022/07/24 07:10:06;;;;;;;4.13;1.63;;;16.80;75.40;;;;;;5012235;28;20203;-80
2022/07/24 07:12:33;;;;;;;4.73;1.90;;;16.70;75.80;;;;;;5011800;28;20269;-76
2022/07/24 07:15:01;;;;;;;5.90;1.70;;;16.60;76.20;;;;;;5011597;28;20294;-81
2022/07/24 07:17:28;;;;;;;5.23;1.80;;;16.50;76.50;;;;;;5011958;28;20213;-80
2022/07/24 07:19:56;;;;;;;3.90;1.63;;;16.50;76.80;;;;;;5005029;28;20215;-77
2022/07/24 07:22:23;;;;;;;3.13;1.20;;;16.30;77.00;;;;;;5021072;28;20247;-78
2022/07/24 07:24:50;;;;;;;4.80;1.70;;;16.20;77.10;;;;;;5012910;28;20190;-77
2022/07/24 07:27:18;;;;;;;5.70;1.60;;;16.10;77.50;;;;;;5017908;28;20252;-77
2022/07/24 07:29:45;;;;;;;6.77;1.60;;;16.00;77.70;;;;;;5022401;28;20185;-79
2022/07/24 07:32:12;;;;;;;8.53;1.70;;;15.90;77.90;;;;;;5015700;28;20239;-75
2022/07/24 07:34:40;;;;;;;6.27;2.00;;;15.80;78.30;;;;;;5018948;28;20327;-76
2022/07/24 07:37:07;;;;;;;6.27;2.03;;;15.80;78.60;;;;;;5011683;28;20785;-76
2022/07/24 07:39:34;;;;;;;6.70;1.73;;;15.70;79.00;;;;;;5015555;28;20644;-74
2022/07/24 07:42:02;;;;;;;9.17;2.00;;;15.60;79.30;;;;;;5022218;28;20188;-77
2022/07/24 07:44:29;;;;;;;6.47;2.07;;;15.60;79.60;;;;;;5013735;28;20185;-76
2022/07/24 07:46:57;;;;;;;5.93;2.30;;;15.50;79.60;;;;;;5008548;28;20262;-77
2022/07/24 07:49:24;;;;;;;8.30;2.63;;;15.40;80.00;;;;;;5020341;28;20186;-75
2022/07/24 07:51:52;;;;;;;4.50;1.97;;;15.40;80.00;;;;;;5001901;28;20595;-76
2022/07/24 07:54:20;;;;;;;4.67;2.43;;;15.30;80.50;;;;;;5013503;28;20197;-75
2022/07/24 07:56:47;;;;;;;5.60;2.10;;;15.20;80.80;;;;;;5017820;28;20216;-77
2022/07/24 07:59:14;;;;;;;4.53;2.00;;;15.20;81.30;;;;;;5011295;28;20557;-77
2022/07/24 08:01:42;;;;;;;5.57;2.30;;;15.10;81.30;;;;;;5019125;28;20680;-78
2022/07/24 08:04:09;;;;;;;5.40;2.30;;;15.10;81.50;;;;;;5014367;28;20185;-78
2022/07/24 08:06:37;;;;;;;7.37;2.27;;;15.00;81.50;;;;;;5015269;28;20189;-79
2022/07/24 08:09:04;;;;;;;5.70;2.40;;;14.90;81.80;;;;;;5016914;28;20204;-75
2022/07/24 08:11:32;;;;;;;8.90;2.77;;;14.90;82.20;;;;;;5014747;28;20187;-79
2022/07/24 08:13:59;;;;;;;7.70;3.10;;;14.90;82.50;;;;;;5011105;28;20189;-79
2022/07/24 08:16:26;;;;;;;12.53;8.17;;;14.80;82.70;;;;;;4997732;28;20190;-78
2022/07/24 08:18:53;;;;;;;8.67;3.67;;;14.80;83.10;;;;;;5016358;28;20670;-78
2022/07/24 08:21:22;;;;;;;11.77;5.43;;;14.80;83.30;;;;;;5013584;28;20191;-78
2022/07/24 08:23:49;;;;;;;6.87;4.30;;;14.80;83.40;;;;;;5020656;28;20551;-78
2022/07/24 08:26:16;;;;;;;5.70;3.63;;;14.80;83.30;;;;;;5014637;28;20233;-77
2022/07/24 08:28:44;;;;;;;6.87;3.43;;;14.60;83.50;;;;;;5018368;28;20239;-79
2022/07/24 08:31:13;;;;;;;9.23;4.10;;;14.60;83.80;;;;;;5007976;28;20217;-77
2022/07/24 08:33:40;;;;;;;8.87;3.73;;;14.60;84.10;;;;;;4993964;28;20174;-78
2022/07/24 08:36:08;;;;;;;6.10;4.00;;;14.60;84.20;;;;;;4994504;28;20185;-77
2022/07/24 08:38:35;;;;;;;14.53;4.30;;;14.50;84.30;;;;;;4994743;28;20221;-78
2022/07/24 08:41:03;;;;;;;10.70;3.90;;;14.50;84.40;;;;;;4994867;28;20723;-75
2022/07/24 08:43:30;;;;;;;13.43;4.17;;;14.40;84.30;;;;;;4994756;28;20189;-79
2022/07/24 08:45:59;;;;;;;6.40;3.80;;;14.40;84.60;;;;;;4994310;28;20182;-77
2022/07/24 08:48:28;;;;;;;8.33;3.80;;;14.30;84.70;;;;;;4994778;28;20189;-77
2022/07/24 08:50:56;;;;;;;4.83;3.23;;;14.30;84.80;;;;;;4994127;28;20273;-78
2022/07/24 08:53:24;;;;;;;8.47;3.67;;;14.30;84.90;;;;;;4994755;28;20193;-78
2022/07/24 08:55:51;;;;;;;12.07;4.70;;;14.20;85.30;;;;;;4993071;28;20193;-78
2022/07/24 08:58:18;;;;;;;10.50;4.83;;;14.20;85.50;;;;;;4993518;28;20210;-78
2022/07/24 09:00:46;;;;;;;9.23;4.20;;;14.20;85.50;;;;;;4993864;28;20209;-76
2022/07/24 09:03:13;;;;;;;11.27;4.07;;;14.20;85.70;;;;;;4993121;28;20197;-78
2022/07/24 09:05:55;;;;;;;12.03;4.60;;;14.20;85.60;;;;;;4994422;28;20185;-79
2022/07/24 09:08:23;;;;;;;9.53;4.50;;;14.20;85.60;;;;;;4992748;28;20178;-78
2022/07/24 09:11:05;;;;;;;12.93;5.37;;;14.10;85.80;;;;;;4991840;28;20186;-79
2022/07/24 09:14:29;;;;;;;15.07;5.60;;;14.10;86.20;;;;;;4992408;28;20657;-77
2022/07/24 09:16:26;;;;;;;8.47;4.57;;;14.10;86.50;;;;;;4990169;28;20191;-78
2022/07/24 09:19:15;;;;;;;11.43;5.20;;;14.00;86.70;;;;;;4994058;28;20213;-79
2022/07/24 09:21:44;;;;;;;8.20;4.77;;;14.00;86.60;;;;;;4989920;28;20636;-79
2022/07/24 09:24:20;;;;;;;10.87;5.10;;;13.90;86.60;;;;;;4993507;28;20190;-79
2022/07/24 09:26:55;;;;;;;12.00;4.47;;;13.90;86.80;;;;;;4993358;28;20273;-80
2022/07/24 09:29:25;;;;;;;8.47;4.47;;;13.90;86.80;;;;;;4995304;28;20265;-80
2022/07/24 09:32:00;;;;;;;13.77;4.90;;;13.80;86.90;;;;;;5000439;28;20641;-80
2022/07/24 09:34:37;;;;;;;12.43;5.30;;;13.80;87.20;;;;;;5010994;28;20180;-79
2022/07/24 09:37:09;;;;;;;13.93;5.00;;;13.80;87.30;;;;;;5012558;28;20212;-79
2022/07/24 09:39:37;;;;;;;11.37;5.00;;;13.70;87.20;;;;;;4999806;28;20251;-76
2022/07/24 09:42:06;;;;;;;13.00;5.20;;;13.70;87.40;;;;;;5010519;28;21379;-80
2022/07/24 09:44:34;;;;;;;12.90;5.77;;;13.70;87.40;;;;;;5011242;28;20194;-79
2022/07/24 09:47:06;;;;;;;12.40;6.03;;;13.60;87.60;;;;;;5012880;28;20181;-79
2022/07/24 09:49:34;;;;;;;13.87;6.97;;;13.60;87.60;;;;;;5012228;28;20189;-80
2022/07/24 09:52:18;;;;;;;17.50;7.67;;;13.50;87.90;;;;;;5011170;28;20260;-81
2022/07/24 09:54:49;;;;;;;20.57;8.67;;;13.50;87.80;;;;;;5011784;28;20185;-78
2022/07/24 09:57:20;;;;;;;16.77;9.17;;;13.50;88.00;;;;;;5011076;28;20251;-79
2022/07/24 09:59:50;;;;;;;18.67;9.27;;;13.50;88.10;;;;;;5012213;28;20181;-78
2022/07/24 10:02:21;;;;;;;14.20;8.40;;;13.50;88.30;;;;;;5012646;28;20181;-78
2022/07/24 10:04:50;;;;;;;18.73;8.87;;;13.40;88.30;;;;;;5012889;28;20616;-79
2022/07/24 10:07:20;;;;;;;18.43;8.00;;;13.50;88.50;;;;;;5008235;28;20182;-78
2022/07/24 10:09:50;;;;;;;17.10;7.73;;;13.40;88.40;;;;;;5015471;28;20227;-78
2022/07/24 10:12:20;;;;;;;18.87;8.00;;;13.30;88.50;;;;;;5012275;28;20221;-78
2022/07/24 10:14:50;;;;;;;19.00;8.33;;;13.30;88.60;;;;;;5012386;28;20277;-78
2022/07/24 10:17:18;;;;;;;19.70;8.83;;;13.30;88.60;;;;;;5010866;28;20224;-78
2022/07/24 10:19:48;;;;;;;17.20;8.23;;;13.30;88.80;;;;;;5012774;28;20185;-78
2022/07/24 10:22:25;;;;;;;15.20;8.33;;;13.30;89.00;;;;;;5012302;28;20220;-78
2022/07/24 10:24:57;;;;;;;16.47;8.73;;;13.30;89.10;;;;;;5009573;28;20545;-80
2022/07/24 10:27:28;;;;;;;22.47;9.90;;;13.30;89.30;;;;;;5009975;28;20267;-78
2022/07/24 10:29:57;;;;;;;19.33;8.03;;;13.20;89.00;;;;;;5012057;28;20231;-79
2022/07/24 10:32:27;;;;;;;16.30;8.43;;;13.20;89.00;;;;;;5012030;28;20229;-79
2022/07/24 10:35:25;;;;;;;16.57;8.53;;;13.10;89.10;;;;;;5018802;28;20220;-80
2022/07/24 10:38:17;;;;;;;18.43;8.80;;;13.00;89.30;;;;;;5002518;28;20281;-80
2022/07/24 10:40:49;;;;;;;18.80;10.00;;;13.00;89.20;;;;;;5009781;28;20182;-82
2022/07/24 10:43:20;;;;;;;19.77;10.43;;;13.00;89.40;;;;;;5011271;28;20189;-81
2022/07/24 10:46:07;;;;;;;22.07;11.10;;;12.90;89.50;;;;;;5011169;28;20224;-80
2022/07/24 10:48:39;;;;;;;20.87;11.60;;;12.90;89.70;;;;;;5009403;28;20192;-81
2022/07/24 10:51:07;;;;;;;16.03;10.10;;;12.90;89.70;;;;;;5015030;28;20195;-82
2022/07/24 10:53:46;;;;;;;22.23;12.50;;;12.90;89.70;;;;;;5012774;28;20177;-82
2022/07/24 10:56:50;;;;;;;32.43;19.60;;;12.80;89.70;;;;;;5012224;28;20589;-82
2022/07/24 10:59:33;;;;;;;24.57;14.80;;;12.80;89.70;;;;;;4990115;28;20204;-82
2022/07/24 11:02:28;;;;;;;21.67;12.97;;;12.80;89.70;;;;;;5018110;28;20242;-80
2022/07/24 11:05:27;;;;;;;19.80;12.30;;;12.80;89.90;;;;;;5010859;28;20656;-79
2022/07/24 11:08:13;;;;;;;25.93;13.43;;;12.80;89.90;;;;;;5011653;28;20224;-76
2022/07/24 11:10:54;;;;;;;22.13;12.90;;;12.70;90.00;;;;;;5012005;28;20177;-78
2022/07/24 11:13:33;;;;;;;16.60;11.40;;;12.70;90.10;;;;;;5007663;28;20594;-79
2022/07/24 11:16:19;;;;;;;17.47;11.53;;;12.70;90.20;;;;;;5014821;28;20613;-80
2022/07/24 11:18:59;;;;;;;14.83;10.07;;;12.70;90.30;;;;;;5011470;28;20220;-77
2022/07/24 11:21:34;;;;;;;19.63;11.40;;;12.60;90.30;;;;;;5013949;28;20263;-79
2022/07/24 11:24:16;;;;;;;20.07;11.23;;;12.70;90.60;;;;;;5010972;28;20188;-79
2022/07/24 11:26:47;;;;;;;19.83;11.20;;;12.70;90.70;;;;;;5000819;28;20192;-81
2022/07/24 11:29:23;;;;;;;18.87;11.70;;;12.60;90.60;;;;;;5011585;28;20180;-80
2022/07/24 11:31:54;;;;;;;21.63;11.87;;;12.60;90.60;;;;;;5012460;28;20316;-81
2022/07/24 11:34:22;;;;;;;13.57;10.47;;;12.60;90.90;;;;;;5012996;28;20333;-76
2022/07/24 11:36:52;;;;;;;18.40;10.80;;;12.50;90.90;;;;;;5016043;28;20263;-79
2022/07/24 11:39:20;;;;;;;18.27;11.37;;;12.60;91.10;;;;;;5009795;28;20275;-80
2022/07/24 11:41:50;;;;;;;20.43;10.50;;;12.60;91.20;;;;;;5016581;28;20212;-80
2022/07/24 11:44:41;;;;;;;17.70;11.60;;;12.60;91.20;;;;;;5014198;28;20201;-80
2022/07/24 11:47:19;;;;;;;19.20;10.73;;;12.50;91.20;;;;;;5012574;28;20225;-78
2022/07/24 11:49:55;;;;;;;15.20;9.97;;;12.40;91.10;;;;;;5015949;28;20177;-80
2022/07/24 11:52:34;;;;;;;17.13;11.13;;;12.40;91.10;;;;;;5011469;28;20210;-82
2022/07/24 11:55:06;;;;;;;20.30;11.70;;;12.40;91.10;;;;;;5010928;28;20539;-82
2022/07/24 11:57:36;;;;;;;16.70;11.20;;;12.40;91.20;;;;;;4988678;28;20204;-81
2022/07/24 12:00:09;;;;;;;21.17;11.07;;;12.40;91.30;;;;;;5014268;28;20212;-82
2022/07/24 12:02:37;;;;;;;17.07;11.70;;;12.30;91.30;;;;;;5009296;28;20183;-81
2022/07/24 12:05:05;;;;;;;18.67;11.97;;;12.30;91.40;;;;;;5010119;28;20199;-82
2022/07/24 12:07:33;;;;;;;18.67;11.70;;;12.30;91.50;;;;;;5012262;28;20272;-81
2022/07/24 12:10:01;;;;;;;18.63;13.00;;;12.30;91.50;;;;;;5014591;28;20581;-80
2022/07/24 12:12:31;;;;;;;16.73;11.87;;;12.30;91.50;;;;;;5016436;28;20189;-82
2022/07/24 12:15:08;;;;;;;17.53;12.47;;;12.20;91.50;;;;;;5027854;28;20215;-83
2022/07/24 12:17:59;;;;;;;17.77;12.80;;;12.20;91.50;;;;;;4993023;28;20565;-83
2022/07/24 12:20:38;;;;;;;19.93;12.63;;;12.30;91.60;;;;;;5013145;28;20280;-83
2022/07/24 12:23:11;;;;;;;23.10;12.90;;;12.20;91.50;;;;;;5020795;28;20189;-80
2022/07/24 12:25:39;;;;;;;20.13;12.50;;;12.30;91.80;;;;;;5018752;28;20243;-82
2022/07/24 12:28:09;;;;;;;19.27;13.50;;;12.30;92.00;;;;;;5012166;28;20667;-80
2022/07/24 12:30:42;;;;;;;21.10;12.90;;;12.20;91.80;;;;;;5016409;28;20184;-81
2022/07/24 12:33:33;;;;;;;18.97;13.07;;;12.20;91.70;;;;;;5013453;28;20225;-80
2022/07/24 12:36:11;;;;;;;20.77;13.83;;;12.20;91.70;;;;;;5013884;28;20550;-80
2022/07/24 12:38:51;;;;;;;25.83;12.87;;;12.20;91.90;;;;;;5018271;28;20252;-75
2022/07/24 12:41:22;;;;;;;18.87;12.90;;;12.10;91.80;;;;;;5008605;28;20185;-80
2022/07/24 12:43:58;;;;;;;19.87;13.47;;;12.10;91.60;;;;;;5016908;28;20221;-79
2022/07/24 12:46:35;;;;;;;23.17;13.50;;;12.00;91.60;;;;;;5012477;28;20239;-78
2022/07/24 12:49:06;;;;;;;17.10;12.67;;;11.90;91.40;;;;;;5013049;28;20240;-81
2022/07/24 12:51:56;;;;;;;19.17;12.77;;;11.80;91.60;;;;;;5009788;28;20235;-75
2022/07/24 12:54:27;;;;;;;18.17;13.93;;;11.80;91.70;;;;;;5018469;28;20208;-75
2022/07/24 12:57:01;;;;;;;17.43;13.07;;;11.80;91.70;;;;;;5013620;28;20273;-76